Middleport, NY (14105)

9:33 PM EST on March 06, 2015 (GMT -0500)
Aves-Apis | Change Station
CLOSE
Current Station
Personal Weather Station
Location: Middleport, NY
Elevation: 427 ft
Nearby Weather Stations

Elev 427 ft 43.24 °N, 78.49 °W | Updated 12 seconds ago

Mostly Cloudy
Mostly Cloudy
14.8 °F
Feels Like 15 °F
N
2.0
Wind Variable Wind from WSW
Gusts 5.0 mph

Today
High -- | Low -- °F
--% Chance of Precip.
Yesterday
High -- | Low -- °F
Precip. -- in
6:42 AM 6:09 PM
Full, 98% visible
Pressure 30.28 in
Visibility 10.0 miles
Clouds Few 13000 ft
Few 19000 ft
Mostly Cloudy 29000 ft
Windchill 15 °F
Dew Point 9 °F
Humidity 76%
Rainfall in
Snow Depth Not available.
UV 0 out of 12
Pollen .50 out of 12
Air Quality Not available.
Flu Activity Not available.
METAR KBUF 070154Z 22010KT 10SM FEW130 FEW190 BKN290 M09/M13 A3023 RMK AO2 SLP254 T10891128

More Conditions Fewer Conditions

Pressure 30.28 in
Visibility 10.0 miles
Clouds Few 13000 ft
Few 19000 ft
Mostly Cloudy 29000 ft
Windchill 15 °F
Dew Point 9 °F
Humidity 76%
Rainfall in
Snow Depth Not available.
UV 0 out of 12
Pollen .50 out of 12
Air Quality Not available.
Flu Activity Not available.
METAR KBUF 070154Z 22010KT 10SM FEW130 FEW190 BKN290 M09/M13 A3023 RMK AO2 SLP254 T10891128

More Conditions Fewer Conditions

10-Day Weather Forecast

Almanac

Astronomy

Mar. 06, 2015 Rise Set
Actual Time
Civil Twilight
Nautical Twilight
Astronomical Twilight
Moon
Length of Visible Light
Length of Day
Tomorrow will be .
, % of the Moon is Illuminated

Today's Extremes

State Highs State Lows

Community

WunderPhotos

Upload Photos

1,803,500 photos uploaded!

WunderBlogs® & News

Nearby

Air Quality

  Air Quality AQ Index Pollutant
Not available.

Snow Depth

Station Depth Elevation

Earthquake Activity

City Distance Mag. Time & Date
Minimum magnitude displayed is 2.5.

Coastal Water Temperatures

Place Temperature

Nearby Weather Stations